createdAt,value
2023-04-27T00:00:00.417Z,3.45
2023-04-27T00:02:01.960Z,3.22
2023-04-27T00:04:07.465Z,2.92
2023-04-27T00:06:09.668Z,3.17
2023-04-27T00:08:11.168Z,3.15
2023-04-27T00:10:12.601Z,3.20
2023-04-27T00:12:14.011Z,3.03
2023-04-27T00:14:15.525Z,3.75
2023-04-27T00:16:17.252Z,3.35
2023-04-27T00:18:19.022Z,3.53
2023-04-27T00:20:20.731Z,3.80
2023-04-27T00:22:22.293Z,3.05
2023-04-27T00:24:23.725Z,3.85
2023-04-27T00:26:26.703Z,3.45
2023-04-27T00:28:28.139Z,3.45
2023-04-27T00:30:29.542Z,3.47
2023-04-27T00:32:31.068Z,3.45
2023-04-27T00:34:32.500Z,2.92
2023-04-27T00:36:35.126Z,3.72
2023-04-27T00:38:36.950Z,3.65
2023-04-27T00:40:39.390Z,3.38
2023-04-27T00:42:40.890Z,3.25
2023-04-27T00:44:42.290Z,3.35
2023-04-27T00:46:43.681Z,4.13
2023-04-27T00:48:46.282Z,3.65
2023-04-27T00:50:47.671Z,3.50
2023-04-27T00:52:49.092Z,3.75
2023-04-27T00:54:51.887Z,3.97
2023-04-27T00:56:53.617Z,3.78
2023-04-27T00:58:55.065Z,3.42
2023-04-27T01:00:56.725Z,3.60
2023-04-27T01:02:58.356Z,3.53
2023-04-27T01:05:00.833Z,3.30
2023-04-27T01:07:02.850Z,3.88
2023-04-27T01:09:05.320Z,3.35
2023-04-27T01:11:06.722Z,4.15
2023-04-27T01:13:08.192Z,3.45
2023-04-27T01:15:10.273Z,3.80
2023-04-27T01:17:11.881Z,3.63
2023-04-27T01:19:13.899Z,3.42
2023-04-27T01:21:15.494Z,3.70
2023-04-27T01:23:17.581Z,4.75
2023-04-27T01:25:20.096Z,3.53
2023-04-27T01:27:21.580Z,3.33
2023-04-27T01:29:22.942Z,3.60
2023-04-27T01:31:24.467Z,4.18
2023-04-27T01:33:25.935Z,3.55
2023-04-27T01:35:28.432Z,3.50
2023-04-27T01:37:30.156Z,3.90
2023-04-27T01:39:31.554Z,3.38
2023-04-27T01:41:32.948Z,3.50
2023-04-27T01:43:34.807Z,3.95
2023-04-27T01:45:36.371Z,3.22
2023-04-27T01:47:37.800Z,3.45
2023-04-27T01:49:39.188Z,4.00
2023-04-27T01:51:40.607Z,3.97
2023-04-27T01:53:42.404Z,4.25
2023-04-27T01:55:43.810Z,4.10
2023-04-27T01:57:45.516Z,3.83
2023-04-27T01:59:46.908Z,4.28
2023-04-27T02:01:48.346Z,3.90
2023-04-27T02:03:49.954Z,3.95
2023-04-27T02:05:51.552Z,4.15
2023-04-27T02:07:52.971Z,5.00
2023-04-27T02:09:54.446Z,4.07
2023-04-27T02:11:55.855Z,4.13
2023-04-27T02:13:57.233Z,4.97
2023-04-27T02:15:58.656Z,4.35
2023-04-27T02:18:00.151Z,4.75
2023-04-27T02:20:02.051Z,4.20
2023-04-27T02:22:04.032Z,4.43
2023-04-27T02:24:05.723Z,4.45
2023-04-27T02:26:07.110Z,4.10
2023-04-27T02:28:08.533Z,4.28
2023-04-27T02:30:11.760Z,3.78
2023-04-27T02:32:13.686Z,4.78
2023-04-27T02:34:15.051Z,4.55
2023-04-27T02:36:16.487Z,4.20
2023-04-27T02:38:17.880Z,4.70
2023-04-27T02:40:19.286Z,4.55
2023-04-27T02:42:21.018Z,5.03
2023-04-27T02:44:22.503Z,3.88
2023-04-27T02:46:23.892Z,4.47
2023-04-27T02:48:25.504Z,4.00
2023-04-27T02:50:26.881Z,4.88
2023-04-27T02:52:28.394Z,4.93
2023-04-27T02:54:30.060Z,4.25
2023-04-27T02:56:31.433Z,4.00
2023-04-27T02:58:33.048Z,4.63
2023-04-27T03:00:34.450Z,4.70
2023-04-27T03:02:36.111Z,4.35
2023-04-27T03:04:38.324Z,4.20
2023-04-27T03:06:41.178Z,4.43
2023-04-27T03:08:42.748Z,4.63
2023-04-27T03:10:44.239Z,4.38
2023-04-27T03:12:45.713Z,5.10
2023-04-27T03:14:47.150Z,4.97
2023-04-27T03:16:48.871Z,4.88
2023-04-27T03:18:50.389Z,4.20
2023-04-27T03:20:51.850Z,4.35
2023-04-27T03:22:53.277Z,4.72
2023-04-27T03:24:54.689Z,5.20
2023-04-27T03:26:56.047Z,4.50
2023-04-27T03:28:57.500Z,4.68
2023-04-27T03:30:58.885Z,4.65
2023-04-27T03:33:00.371Z,4.80
2023-04-27T03:35:02.872Z,4.60
2023-04-27T03:37:04.244Z,4.75
2023-04-27T03:39:05.661Z,4.53
2023-04-27T03:41:07.141Z,4.80
2023-04-27T03:43:08.566Z,4.90
2023-04-27T03:45:12.103Z,4.57
2023-04-27T03:47:13.753Z,5.25
2023-04-27T03:49:15.298Z,4.50
2023-04-27T03:51:16.831Z,4.68
2023-04-27T03:53:18.230Z,4.70
2023-04-27T03:55:19.833Z,4.78
2023-04-27T03:57:21.506Z,5.57
2023-04-27T03:59:22.948Z,4.32
2023-04-27T04:01:24.882Z,5.07
2023-04-27T04:03:26.489Z,5.20
2023-04-27T04:05:28.113Z,5.13
2023-04-27T04:07:29.530Z,5.50
2023-04-27T04:09:31.017Z,5.45
2023-04-27T04:11:32.389Z,5.53
2023-04-27T04:13:33.902Z,5.15
2023-04-27T04:15:35.517Z,5.32
2023-04-27T04:17:37.071Z,5.28
2023-04-27T04:19:38.557Z,5.93
2023-04-27T04:21:39.944Z,5.93
2023-04-27T04:23:41.400Z,6.03
2023-04-27T04:25:43.302Z,5.38
2023-04-27T04:27:44.699Z,6.25
2023-04-27T04:29:46.090Z,5.97
2023-04-27T04:31:47.595Z,6.07
2023-04-27T04:33:49.136Z,6.03
2023-04-27T04:35:50.514Z,8.82
2023-04-27T04:37:52.167Z,9.80
2023-04-27T04:39:53.518Z,6.55
2023-04-27T04:41:54.905Z,6.18
2023-04-27T04:43:56.335Z,5.72
2023-04-27T04:45:57.720Z,5.72
2023-04-27T04:48:00.981Z,6.00
2023-04-27T04:50:02.737Z,5.32
2023-04-27T04:52:04.258Z,5.68
2023-04-27T04:54:05.661Z,5.72
2023-04-27T04:56:14.286Z,5.88
2023-04-27T04:58:15.835Z,5.55
2023-04-27T05:00:17.989Z,5.65
2023-04-27T05:02:19.431Z,5.90
2023-04-27T05:04:21.569Z,5.82
2023-04-27T05:06:23.100Z,5.88
2023-04-27T05:08:24.512Z,5.60
2023-04-27T05:10:26.035Z,6.30
2023-04-27T05:12:27.685Z,6.00
2023-04-27T05:14:29.068Z,6.45
2023-04-27T05:16:30.524Z,6.75
2023-04-27T05:18:32.650Z,6.82
2023-04-27T05:20:38.258Z,6.68
2023-04-27T05:22:39.645Z,6.38
2023-04-27T05:24:41.071Z,6.30
2023-04-27T05:26:43.324Z,5.88
2023-04-27T05:28:46.957Z,6.30
2023-04-27T05:30:48.368Z,6.82
2023-04-27T05:32:49.842Z,6.05
2023-04-27T05:34:51.330Z,6.53
2023-04-27T05:36:52.729Z,6.55
2023-04-27T05:38:55.081Z,6.30
2023-04-27T05:40:57.907Z,6.43
2023-04-27T05:43:01.794Z,6.60
2023-04-27T05:45:03.970Z,6.32
2023-04-27T05:47:05.932Z,6.40
2023-04-27T05:49:07.311Z,6.57
2023-04-27T05:51:08.739Z,6.20
2023-04-27T05:53:10.418Z,6.78
2023-04-27T05:55:11.820Z,6.78
2023-04-27T05:57:13.373Z,6.65
2023-04-27T05:59:15.374Z,6.22
2023-04-27T06:01:17.297Z,7.45
2023-04-27T06:03:18.803Z,6.88
2023-04-27T06:05:21.360Z,7.05
2023-04-27T06:07:22.807Z,8.13
2023-04-27T06:09:24.408Z,6.40
2023-04-27T06:11:25.922Z,6.80
2023-04-27T06:13:27.308Z,5.90
2023-04-27T06:15:29.228Z,6.75
2023-04-27T06:17:30.606Z,6.35
2023-04-27T06:19:32.070Z,7.18
2023-04-27T06:21:34.001Z,6.03
2023-04-27T06:23:35.869Z,5.97
2023-04-27T06:25:38.837Z,6.50
2023-04-27T06:27:40.738Z,6.82
2023-04-27T06:29:42.119Z,6.50
2023-04-27T06:31:43.554Z,6.00
2023-04-27T06:33:44.975Z,5.93
2023-04-27T06:35:47.534Z,5.95
2023-04-27T06:37:49.055Z,5.80
2023-04-27T06:39:50.441Z,5.35
2023-04-27T06:41:51.816Z,6.13
2023-04-27T06:43:54.244Z,5.70
2023-04-27T06:45:55.784Z,4.85
2023-04-27T06:47:57.361Z,5.07
2023-04-27T06:49:58.763Z,5.00
2023-04-27T06:52:02.883Z,4.85
2023-04-27T06:54:04.562Z,4.03
2023-04-27T06:56:07.189Z,4.80
2023-04-27T06:58:08.956Z,4.93
2023-04-27T07:00:13.279Z,4.82
2023-04-27T07:02:14.706Z,4.15
2023-04-27T07:04:16.196Z,4.65
2023-04-27T07:06:17.685Z,4.50
2023-04-27T07:08:19.052Z,4.43
2023-04-27T07:10:20.686Z,4.20
2023-04-27T07:12:22.156Z,4.05
2023-04-27T07:14:23.596Z,4.00
2023-04-27T07:16:25.126Z,4.40
2023-04-27T07:18:28.210Z,4.38
2023-04-27T07:20:29.851Z,4.47
2023-04-27T07:22:31.697Z,3.42
2023-04-27T07:24:33.273Z,3.58
2023-04-27T07:26:34.840Z,3.80
2023-04-27T07:28:36.317Z,4.05
2023-04-27T07:30:37.740Z,3.95
2023-04-27T07:32:41.752Z,4.32
2023-04-27T07:34:52.848Z,3.72
2023-04-27T07:36:55.674Z,4.03
2023-04-27T07:38:58.656Z,4.90
2023-04-27T07:41:04.144Z,3.70
2023-04-27T07:43:05.561Z,4.18
2023-04-27T07:45:08.368Z,4.43
2023-04-27T07:47:10.665Z,4.15
2023-04-27T07:49:14.135Z,4.60
2023-04-27T07:51:17.429Z,3.78
2023-04-27T07:53:18.984Z,4.28
2023-04-27T07:55:22.177Z,4.20
2023-04-27T07:57:23.610Z,3.55
2023-04-27T07:59:25.062Z,4.00
2023-04-27T08:01:26.751Z,3.42
2023-04-27T08:03:28.320Z,3.65
2023-04-27T08:05:30.638Z,3.83
2023-04-27T08:07:37.127Z,3.42
2023-04-27T08:09:42.913Z,3.30
2023-04-27T08:11:44.443Z,4.10
2023-04-27T08:13:46.039Z,3.60
2023-04-27T08:15:47.442Z,3.65
2023-04-27T08:17:48.940Z,3.72
2023-04-27T08:19:50.667Z,3.50
2023-04-27T08:21:52.035Z,3.50
2023-04-27T08:23:53.485Z,3.97
2023-04-27T08:25:54.952Z,4.45
2023-04-27T08:27:56.389Z,3.55
2023-04-27T08:29:58.679Z,4.15
2023-04-27T08:32:02.273Z,3.53
2023-04-27T08:34:03.788Z,3.85
2023-04-27T08:36:05.608Z,3.67
2023-04-27T08:38:07.534Z,3.72
2023-04-27T08:40:09.919Z,4.00
2023-04-27T08:42:12.381Z,4.00
2023-04-27T08:44:13.972Z,3.17
2023-04-27T08:46:28.087Z,3.97
2023-04-27T08:48:30.247Z,3.33
2023-04-27T08:50:32.468Z,4.05
2023-04-27T08:52:33.872Z,3.72
2023-04-27T08:54:35.668Z,3.28
2023-04-27T08:56:37.171Z,3.67
2023-04-27T08:58:39.370Z,3.78
2023-04-27T09:00:43.442Z,3.90
2023-04-27T09:02:48.964Z,4.07
2023-04-27T09:04:51.652Z,4.05
2023-04-27T09:06:53.126Z,3.55
2023-04-27T09:08:54.501Z,3.55
2023-04-27T09:10:56.122Z,3.70
2023-04-27T09:13:01.053Z,4.30
2023-04-27T09:15:04.575Z,3.90
2023-04-27T09:17:05.975Z,3.55
2023-04-27T09:19:07.811Z,3.20
2023-04-27T09:21:09.848Z,3.55
2023-04-27T09:23:11.243Z,4.13
2023-04-27T09:25:30.118Z,5.70
2023-04-27T09:27:31.531Z,5.05
2023-04-27T09:29:37.412Z,4.40
2023-04-27T09:31:38.884Z,4.22
2023-04-27T09:33:40.438Z,3.28
2023-04-27T09:35:42.129Z,3.38
2023-04-27T09:37:44.493Z,3.13
2023-04-27T09:39:46.458Z,3.30
2023-04-27T09:41:48.650Z,3.58
2023-04-27T09:43:51.658Z,3.40
2023-04-27T09:45:55.266Z,3.00
2023-04-27T09:47:58.149Z,2.95
2023-04-27T09:50:01.599Z,3.13
2023-04-27T09:52:03.009Z,3.33
2023-04-27T09:54:05.139Z,2.60
2023-04-27T09:56:36.421Z,2.90
2023-04-27T09:58:40.868Z,2.47
2023-04-27T10:00:57.155Z,2.47
2023-04-27T10:03:17.014Z,2.80
2023-04-27T10:05:42.716Z,2.50
2023-04-27T10:07:45.542Z,2.80
2023-04-27T10:09:49.093Z,2.53
2023-04-27T10:11:52.576Z,2.83
2023-04-27T10:13:55.337Z,2.85
2023-04-27T10:15:56.840Z,2.78
2023-04-27T10:18:04.460Z,2.50
2023-04-27T10:20:10.156Z,2.90
2023-04-27T10:22:11.616Z,3.45
2023-04-27T10:24:12.997Z,3.00
2023-04-27T10:26:22.962Z,2.90
2023-04-27T10:28:24.448Z,2.92
2023-04-27T10:30:31.725Z,2.92
2023-04-27T10:32:33.199Z,3.42
2023-04-27T10:34:38.864Z,3.08
2023-04-27T10:36:41.254Z,3.03
2023-04-27T10:38:42.751Z,2.72
2023-04-27T10:40:46.470Z,3.20
2023-04-27T10:42:49.420Z,3.05
2023-04-27T10:44:57.045Z,3.50
2023-04-27T10:47:01.321Z,3.17
2023-04-27T10:49:05.529Z,3.25
2023-04-27T10:51:07.326Z,3.15
2023-04-27T10:53:08.801Z,3.13
2023-04-27T10:55:18.398Z,3.03
2023-04-27T10:57:19.858Z,3.22
2023-04-27T10:59:21.587Z,3.17
2023-04-27T11:01:27.265Z,2.63
2023-04-27T11:03:28.866Z,2.95
2023-04-27T11:05:33.094Z,3.30
2023-04-27T11:07:34.510Z,2.42
2023-04-27T11:09:37.764Z,3.17
2023-04-27T11:11:45.611Z,2.97
2023-04-27T11:13:49.346Z,3.13
2023-04-27T11:15:59.284Z,2.75
2023-04-27T11:18:07.168Z,2.78
2023-04-27T11:20:09.518Z,2.72
2023-04-27T11:22:11.545Z,3.35
2023-04-27T11:24:15.337Z,3.22
2023-04-27T11:26:19.818Z,3.65
2023-04-27T11:28:22.794Z,3.55
2023-04-27T11:30:24.320Z,3.17
2023-04-27T11:32:25.969Z,3.22
2023-04-27T11:34:27.484Z,3.20
2023-04-27T11:36:28.898Z,3.65
2023-04-27T11:38:34.289Z,3.20
2023-04-27T11:40:37.347Z,2.72
2023-04-27T11:42:43.274Z,2.88
2023-04-27T11:44:59.182Z,3.63
2023-04-27T11:47:02.110Z,2.72
2023-04-27T11:49:05.470Z,3.30
2023-04-27T11:51:10.156Z,2.63
2023-04-27T11:53:11.573Z,2.72
2023-04-27T11:55:15.936Z,3.85
2023-04-27T11:57:17.704Z,3.13
2023-04-27T11:59:27.517Z,3.22
2023-04-27T12:01:37.582Z,3.53
2023-04-27T12:03:40.233Z,3.10
2023-04-27T12:05:55.770Z,3.22
2023-04-27T12:07:58.216Z,2.72
2023-04-27T12:10:00.903Z,2.53
2023-04-27T12:12:03.031Z,2.80
2023-04-27T12:14:04.500Z,3.05
2023-04-27T12:16:06.056Z,3.15
2023-04-27T12:18:07.543Z,3.17
2023-04-27T12:20:09.941Z,3.20
2023-04-27T12:22:11.563Z,3.63
2023-04-27T12:24:13.236Z,3.38
2023-04-27T12:26:15.481Z,3.10
2023-04-27T12:28:19.101Z,3.38
2023-04-27T12:30:21.467Z,3.22
2023-04-27T12:32:23.585Z,3.20
2023-04-27T12:34:25.134Z,3.45
2023-04-27T12:36:27.313Z,3.17
2023-04-27T12:38:29.940Z,3.30
2023-04-27T12:40:31.443Z,3.50
2023-04-27T12:42:33.300Z,3.17
2023-04-27T12:44:34.700Z,3.38
2023-04-27T12:46:36.138Z,3.80
2023-04-27T12:48:37.637Z,3.03
2023-04-27T12:50:39.165Z,4.07
2023-04-27T12:52:40.531Z,3.22
2023-04-27T12:54:41.900Z,3.20
2023-04-27T12:56:43.459Z,3.20
2023-04-27T12:58:45.538Z,3.35
2023-04-27T13:00:46.963Z,3.67
2023-04-27T13:02:48.534Z,2.95
2023-04-27T13:04:50.073Z,3.00
2023-04-27T13:06:51.555Z,3.22
2023-04-27T13:08:53.049Z,3.10
2023-04-27T13:10:54.497Z,2.95
2023-04-27T13:12:55.933Z,3.40
2023-04-27T13:14:57.357Z,3.30
2023-04-27T13:16:58.750Z,3.47
2023-04-27T13:19:00.188Z,3.17
2023-04-27T13:21:03.352Z,3.70
2023-04-27T13:23:05.078Z,3.70
2023-04-27T13:25:06.857Z,4.10
2023-04-27T13:27:08.285Z,4.13
2023-04-27T13:29:09.691Z,3.65
2023-04-27T13:31:11.792Z,4.32
2023-04-27T13:33:22.499Z,3.45
2023-04-27T13:35:24.970Z,3.97
2023-04-27T13:37:27.046Z,3.97
2023-04-27T13:39:28.839Z,3.53
2023-04-27T13:41:31.253Z,3.33
2023-04-27T13:43:33.015Z,3.35
2023-04-27T13:45:34.622Z,3.65
2023-04-27T13:47:38.694Z,4.00
2023-04-27T13:49:40.374Z,3.13
2023-04-27T13:51:41.779Z,3.28
2023-04-27T13:53:43.158Z,3.30
2023-04-27T13:55:44.728Z,3.95
2023-04-27T13:57:46.151Z,3.47
2023-04-27T13:59:47.510Z,3.63
2023-04-27T14:01:48.955Z,3.97
2023-04-27T14:03:50.437Z,4.30
2023-04-27T14:05:52.129Z,3.72
2023-04-27T14:07:53.775Z,3.75
2023-04-27T14:09:55.273Z,3.65
2023-04-27T14:11:57.677Z,4.10
2023-04-27T14:13:59.175Z,3.08
2023-04-27T14:16:00.730Z,4.15
2023-04-27T14:18:03.224Z,3.80
2023-04-27T14:20:06.886Z,3.78
2023-04-27T14:22:09.594Z,3.88
2023-04-27T14:24:10.975Z,3.20
2023-04-27T14:26:12.450Z,3.67
2023-04-27T14:28:14.727Z,3.88
2023-04-27T14:30:16.298Z,3.60
2023-04-27T14:32:18.015Z,4.30
2023-04-27T14:34:21.510Z,3.80
2023-04-27T14:36:23.112Z,4.10
2023-04-27T14:38:24.730Z,3.60
2023-04-27T14:40:26.262Z,4.03
2023-04-27T14:42:27.799Z,4.43
2023-04-27T14:44:29.232Z,4.22
2023-04-27T14:46:30.649Z,4.05
2023-04-27T14:48:32.855Z,3.33
2023-04-27T14:50:34.295Z,3.50
2023-04-27T14:52:35.964Z,4.18
2023-04-27T14:54:38.624Z,3.80
2023-04-27T14:56:40.116Z,3.67
2023-04-27T14:58:41.566Z,4.32
2023-04-27T15:00:43.384Z,3.80
2023-04-27T15:02:44.828Z,3.65
2023-04-27T15:04:46.298Z,3.70
2023-04-27T15:06:47.770Z,3.53
2023-04-27T15:08:49.156Z,3.33
2023-04-27T15:10:50.679Z,3.65
2023-04-27T15:12:52.050Z,3.85
2023-04-27T15:14:53.833Z,3.50
2023-04-27T15:16:55.267Z,3.67
2023-04-27T15:18:56.678Z,3.95
2023-04-27T15:20:59.613Z,3.72
2023-04-27T15:23:01.093Z,3.92
2023-04-27T15:25:02.501Z,3.90
2023-04-27T15:27:03.893Z,4.47
2023-04-27T15:29:05.386Z,3.88
2023-04-27T15:31:06.802Z,3.95
2023-04-27T15:33:10.274Z,3.72
2023-04-27T15:35:11.959Z,4.18
2023-04-27T15:37:13.377Z,3.85
2023-04-27T15:39:14.929Z,3.90
2023-04-27T15:41:16.668Z,3.97
2023-04-27T15:43:18.055Z,3.60
2023-04-27T15:45:19.559Z,3.63
2023-04-27T15:47:21.232Z,3.67
2023-04-27T15:49:22.643Z,3.70
2023-04-27T15:51:24.145Z,3.45
2023-04-27T15:53:25.549Z,4.15
2023-04-27T15:55:26.948Z,3.70
2023-04-27T15:57:28.332Z,3.72
2023-04-27T15:59:32.578Z,3.95
2023-04-27T16:01:34.124Z,3.85
2023-04-27T16:03:37.512Z,4.10
2023-04-27T16:05:38.951Z,4.03
2023-04-27T16:07:42.603Z,3.53
2023-04-27T16:09:44.299Z,3.88
2023-04-27T16:11:45.784Z,3.70
2023-04-27T16:13:47.176Z,3.90
2023-04-27T16:15:48.541Z,3.63
2023-04-27T16:17:49.964Z,4.18
2023-04-27T16:19:51.606Z,4.05
2023-04-27T16:21:53.358Z,3.90
2023-04-27T16:23:54.850Z,4.30
2023-04-27T16:25:56.295Z,4.40
2023-04-27T16:27:58.996Z,4.10
2023-04-27T16:30:00.372Z,4.40
2023-04-27T16:32:01.958Z,4.15
2023-04-27T16:34:04.038Z,4.30
2023-04-27T16:36:06.296Z,4.10
2023-04-27T16:38:07.742Z,4.00
2023-04-27T16:40:09.657Z,4.35
2023-04-27T16:42:12.857Z,4.32
2023-04-27T16:44:14.508Z,4.65
2023-04-27T16:46:17.021Z,3.45
2023-04-27T16:48:18.492Z,3.40
2023-04-27T16:50:19.859Z,3.90
2023-04-27T16:52:21.267Z,4.13
2023-04-27T16:54:22.734Z,4.15
2023-04-27T16:56:32.565Z,3.85
2023-04-27T16:58:36.036Z,4.00
2023-04-27T17:00:39.225Z,3.97
2023-04-27T17:02:42.960Z,3.63
2023-04-27T17:04:45.912Z,3.65
2023-04-27T17:06:48.353Z,3.47
2023-04-27T17:08:49.734Z,3.38
2023-04-27T17:10:51.339Z,3.63
2023-04-27T17:12:52.711Z,3.25
2023-04-27T17:14:54.146Z,3.70
2023-04-27T17:16:55.550Z,4.00
2023-04-27T17:18:57.161Z,3.45
2023-04-27T17:20:58.568Z,4.00
2023-04-27T17:22:59.964Z,4.15
2023-04-27T17:25:01.766Z,3.90
2023-04-27T17:27:04.658Z,3.80
2023-04-27T17:29:06.127Z,3.10
2023-04-27T17:31:07.544Z,3.67
2023-04-27T17:33:09.985Z,3.92
2023-04-27T17:35:11.518Z,4.40
2023-04-27T17:37:14.723Z,4.18
2023-04-27T17:39:16.310Z,4.60
2023-04-27T17:41:17.840Z,4.10
2023-04-27T17:43:19.220Z,4.10
2023-04-27T17:45:20.811Z,4.35
2023-04-27T17:47:25.182Z,4.28
2023-04-27T17:49:26.725Z,4.63
2023-04-27T17:51:28.160Z,4.50
2023-04-27T17:53:29.576Z,3.92
2023-04-27T17:55:31.180Z,4.53
2023-04-27T17:57:33.522Z,4.00
2023-04-27T17:59:36.033Z,4.07
2023-04-27T18:01:37.503Z,4.40
2023-04-27T18:03:39.199Z,3.65
2023-04-27T18:05:40.883Z,4.45
2023-04-27T18:07:42.363Z,4.30
2023-04-27T18:09:43.853Z,4.25
2023-04-27T18:11:45.331Z,3.92
2023-04-27T18:13:47.028Z,4.32
2023-04-27T18:15:48.415Z,4.45
2023-04-27T18:17:49.894Z,4.10
2023-04-27T18:20:04.434Z,4.20
2023-04-27T18:22:09.901Z,4.35
2023-04-27T18:24:11.278Z,4.57
2023-04-27T18:26:13.123Z,4.63
2023-04-27T18:28:14.748Z,4.38
2023-04-27T18:30:16.323Z,5.72
2023-04-27T18:32:17.785Z,4.75
2023-04-27T18:34:19.821Z,4.93
2023-04-27T18:36:21.394Z,5.93
2023-04-27T18:38:22.841Z,4.75
2023-04-27T18:40:25.769Z,4.88
2023-04-27T18:42:27.203Z,4.72
2023-04-27T18:44:28.577Z,4.57
2023-04-27T18:46:30.104Z,4.72
2023-04-27T18:48:32.404Z,4.72
2023-04-27T18:50:34.216Z,4.32
2023-04-27T18:52:35.670Z,4.63
2023-04-27T18:54:38.142Z,4.68
2023-04-27T18:56:39.593Z,4.22
2023-04-27T18:58:40.965Z,4.22
2023-04-27T19:00:42.511Z,4.75
2023-04-27T19:02:44.032Z,5.10
2023-04-27T19:04:56.838Z,6.85
2023-04-27T19:07:03.417Z,5.65
2023-04-27T19:09:04.822Z,5.55
2023-04-27T19:11:06.277Z,5.47
2023-04-27T19:13:07.939Z,4.60
2023-04-27T19:15:09.898Z,5.45
2023-04-27T19:17:11.858Z,4.78
2023-04-27T19:19:13.509Z,4.68
2023-04-27T19:21:15.095Z,4.78
2023-04-27T19:23:19.085Z,4.93
2023-04-27T19:25:23.062Z,4.57
2023-04-27T19:27:24.565Z,4.68
2023-04-27T19:29:29.046Z,5.28
2023-04-27T19:31:30.589Z,4.22
2023-04-27T19:33:32.102Z,4.38
2023-04-27T19:35:33.546Z,4.15
2023-04-27T19:37:34.930Z,4.53
2023-04-27T19:39:36.482Z,4.70
2023-04-27T19:41:38.128Z,4.30
2023-04-27T19:43:41.141Z,4.32
2023-04-27T19:45:42.925Z,4.45
2023-04-27T19:47:45.147Z,4.55
2023-04-27T19:49:46.710Z,4.97
2023-04-27T19:51:48.169Z,4.50
2023-04-27T19:53:49.952Z,4.63
2023-04-27T19:55:51.841Z,4.25
2023-04-27T19:57:53.243Z,4.70
2023-04-27T19:59:54.758Z,4.53
2023-04-27T20:01:56.261Z,4.20
2023-04-27T20:03:57.870Z,4.55
2023-04-27T20:05:59.782Z,4.68
2023-04-27T20:08:01.270Z,4.15
2023-04-27T20:10:03.117Z,4.75
2023-04-27T20:12:05.007Z,4.72
2023-04-27T20:14:06.394Z,4.95
2023-04-27T20:16:08.944Z,5.35
2023-04-27T20:18:11.231Z,5.03
2023-04-27T20:20:12.673Z,4.47
2023-04-27T20:22:14.257Z,4.00
2023-04-27T20:24:16.231Z,4.60
2023-04-27T20:26:17.973Z,4.45
2023-04-27T20:28:19.434Z,4.20
2023-04-27T20:30:21.045Z,3.88
2023-04-27T20:32:22.463Z,4.03
2023-04-27T20:34:23.860Z,4.50
2023-04-27T20:36:26.219Z,3.97
2023-04-27T20:38:27.631Z,4.30
2023-04-27T20:40:29.369Z,4.30
2023-04-27T20:42:31.057Z,4.00
2023-04-27T20:44:33.744Z,4.30
2023-04-27T20:46:35.460Z,4.28
2023-04-27T20:48:37.181Z,3.80
2023-04-27T20:50:39.376Z,4.15
2023-04-27T20:52:41.000Z,3.97
2023-04-27T20:54:42.419Z,3.95
2023-04-27T20:56:43.886Z,3.70
2023-04-27T20:58:46.270Z,3.83
2023-04-27T21:00:47.648Z,4.55
2023-04-27T21:02:49.136Z,4.07
2023-04-27T21:04:50.809Z,3.88
2023-04-27T21:06:52.796Z,4.50
2023-04-27T21:08:54.361Z,3.75
2023-04-27T21:10:57.165Z,3.80
2023-04-27T21:13:00.241Z,4.35
2023-04-27T21:15:01.787Z,3.97
2023-04-27T21:17:03.493Z,4.15
2023-04-27T21:19:05.213Z,4.25
2023-04-27T21:21:06.759Z,4.53
2023-04-27T21:23:08.170Z,4.43
2023-04-27T21:25:09.797Z,4.53
2023-04-27T21:27:11.494Z,4.50
2023-04-27T21:29:12.897Z,4.32
2023-04-27T21:31:14.342Z,4.70
2023-04-27T21:33:15.811Z,4.63
2023-04-27T21:35:17.363Z,4.47
2023-04-27T21:37:18.739Z,4.95
2023-04-27T21:39:20.403Z,4.68
2023-04-27T21:41:21.887Z,4.97
2023-04-27T21:43:23.265Z,5.07
2023-04-27T21:45:24.732Z,5.00
2023-04-27T21:47:26.605Z,5.22
2023-04-27T21:49:28.123Z,4.72
2023-04-27T21:51:31.994Z,4.80
2023-04-27T21:53:33.435Z,5.05
2023-04-27T21:55:34.862Z,5.40
2023-04-27T21:57:36.690Z,5.30
2023-04-27T21:59:38.159Z,5.00
2023-04-27T22:01:40.073Z,6.05
2023-04-27T22:03:41.885Z,5.18
2023-04-27T22:05:43.557Z,5.07
2023-04-27T22:07:45.946Z,4.88
2023-04-27T22:09:47.331Z,5.22
2023-04-27T22:11:48.898Z,5.25
2023-04-27T22:13:50.326Z,5.00
2023-04-27T22:15:52.188Z,5.50
2023-04-27T22:17:53.774Z,4.78
2023-04-27T22:19:55.269Z,5.60
2023-04-27T22:21:57.062Z,5.30
2023-04-27T22:23:58.538Z,5.47
2023-04-27T22:26:00.196Z,4.85
2023-04-27T22:28:01.689Z,4.55
2023-04-27T22:30:03.919Z,5.55
2023-04-27T22:32:06.124Z,5.40
2023-04-27T22:34:07.884Z,5.18
2023-04-27T22:36:09.578Z,5.38
2023-04-27T22:38:11.197Z,5.30
2023-04-27T22:40:12.663Z,4.88
2023-04-27T22:42:14.062Z,5.40
2023-04-27T22:44:16.158Z,5.55
2023-04-27T22:46:17.759Z,5.05
2023-04-27T22:48:19.179Z,5.00
2023-04-27T22:50:21.022Z,4.97
2023-04-27T22:52:24.661Z,4.70
2023-04-27T22:54:26.516Z,5.30
2023-04-27T22:56:27.992Z,5.57
2023-04-27T22:58:29.416Z,5.32
2023-04-27T23:00:31.258Z,4.95
2023-04-27T23:02:32.827Z,5.57
2023-04-27T23:04:34.362Z,5.65
2023-04-27T23:06:35.845Z,5.45
2023-04-27T23:08:37.277Z,5.82
2023-04-27T23:10:39.891Z,5.80
2023-04-27T23:12:41.576Z,4.95
2023-04-27T23:14:43.207Z,5.47
2023-04-27T23:16:48.417Z,5.55
2023-04-27T23:18:50.794Z,5.45
2023-04-27T23:20:55.858Z,4.68
2023-04-27T23:22:57.473Z,5.30
2023-04-27T23:24:58.917Z,5.45
2023-04-27T23:27:01.124Z,5.35
2023-04-27T23:29:02.703Z,5.20
2023-04-27T23:31:04.157Z,5.40
2023-04-27T23:33:05.709Z,5.50
2023-04-27T23:35:07.629Z,4.97
2023-04-27T23:37:09.089Z,5.38
2023-04-27T23:39:10.533Z,5.28
2023-04-27T23:41:11.998Z,5.45
2023-04-27T23:43:13.372Z,5.55
2023-04-27T23:45:17.876Z,5.18
2023-04-27T23:47:19.274Z,5.90
2023-04-27T23:49:20.853Z,4.97
2023-04-27T23:51:22.228Z,5.25
2023-04-27T23:53:23.676Z,5.10
2023-04-27T23:55:25.082Z,6.25
2023-04-27T23:57:26.441Z,5.30
2023-04-27T23:59:27.964Z,4.85
